.
WxDataArchive / Data Records for 2007-08-19
2007-08-18 August 2007 2007-08-20

Data Records for Sunday, 19 August 2007

Time	Temp	Chill	HIndex	Humid	Dewpt	 Wind 	HiWind	WindDir	Rain 	Barom 
-----	----	-----	------	-----	-----	------	------	-------	-----	----- 
00:00	61.0	61.0	61.0	77	53.7	1	3	90	0.00	30.075 
00:05	61.0	61.0	61.0	78	54.1	0	2	90	0.00	30.077 
00:10	61.0	61.0	61.0	78	54.1	0	1	90	0.00	30.080 
00:15	61.0	61.0	61.0	78	54.1	0	2	90	0.00	30.079 
00:20	61.0	61.0	61.0	78	54.1	1	2	90	0.00	30.074 
00:25	61.2	61.2	61.2	78	54.3	1	2	90	0.00	30.068 
00:30	61.2	61.2	61.2	78	54.3	1	3	90	0.00	30.067 
00:35	61.2	61.2	61.2	78	54.3	1	3	90	0.00	30.064 
00:40	61.2	61.2	61.2	78	54.3	1	2	90	0.00	30.063 
00:45	61.0	61.0	61.0	78	54.1	1	3	90	0.00	30.058 
00:50	61.0	61.0	61.0	79	54.4	0	1	90	0.00	30.054 
00:55	61.0	61.0	61.0	78	54.1	1	3	90	0.00	30.050 
01:00	61.0	61.0	61.0	79	54.4	1	4	90	0.00	30.048 
01:05	61.0	61.0	61.0	79	54.4	1	4	90	0.00	30.044 
01:10	61.0	61.0	61.0	79	54.4	1	3	90	0.00	30.041 
01:15	61.0	61.0	61.0	79	54.4	1	4	112	0.00	30.040 
01:20	60.9	60.9	60.9	79	54.3	1	3	90	0.00	30.034 
01:25	60.9	60.9	60.9	79	54.3	1	3	90	0.00	30.033 
01:30	60.9	60.9	60.9	80	54.7	1	3	90	0.00	30.030 
01:35	60.9	60.9	60.9	80	54.7	2	5	90	0.00	30.025 
01:40	60.9	60.9	60.9	80	54.7	1	3	90	0.00	30.023 
01:45	60.9	60.9	60.9	80	54.7	2	6	90	0.00	30.025 
01:50	60.9	60.9	60.9	81	55.0	1	3	90	0.00	30.025 
01:55	60.9	60.9	60.9	81	55.0	2	5	112	0.00	30.018 
02:00	60.9	60.9	60.9	81	55.0	2	4	112	0.00	30.013 
02:05	60.7	60.7	60.7	82	55.2	2	5	90	0.00	30.008 
02:10	60.9	60.9	60.9	82	55.4	3	7	112	0.00	30.005 
02:15	60.7	60.7	60.7	83	55.5	2	5	90	0.00	30.002 
02:20	60.7	60.7	60.7	83	55.5	2	6	90	0.00	30.002 
02:25	60.9	60.9	60.9	84	56.0	2	4	112	0.00	30.001 
02:30	60.9	60.9	60.9	83	55.7	2	5	90	0.00	30.001 
02:35	60.9	60.9	60.9	83	55.7	2	5	90	0.00	29.999 
02:40	61.0	61.0	61.0	83	55.8	1	3	90	0.00	30.000 
02:45	61.0	61.0	61.0	83	55.8	2	3	90	0.00	29.994 
02:50	61.2	61.2	61.2	82	55.7	1	3	90	0.00	29.991 
02:55	61.3	61.3	61.3	81	55.4	3	6	90	0.00	29.988 
03:00	61.5	61.5	61.5	81	55.6	2	5	90	0.00	29.988 
03:05	61.6	61.6	61.6	81	55.7	2	6	90	0.00	29.995 
03:10	61.6	61.6	61.6	81	55.7	2	6	90	0.00	29.996 
03:15	61.6	61.6	61.6	82	56.0	1	5	90	0.00	29.997 
03:20	61.6	61.6	61.6	82	56.0	2	4	68	0.00	29.998 
03:25	61.5	61.5	61.5	83	56.3	2	6	112	0.00	30.000 
03:30	61.5	61.5	61.5	83	56.3	1	3	90	0.00	29.997 
03:35	61.3	61.3	61.3	84	56.4	3	5	90	0.00	29.991 
03:40	61.2	61.2	61.2	85	56.6	3	5	90	0.00	29.997 
03:45	61.0	61.0	61.0	86	56.8	2	5	90	0.00	29.995 
03:50	60.9	60.9	60.9	87	57.0	2	4	90	0.00	29.996 
03:55	60.7	60.7	60.7	87	56.8	2	5	90	0.00	29.988 
04:00	60.5	60.5	60.5	87	56.6	2	4	90	0.00	29.983 
04:05	60.5	60.5	60.5	87	56.6	2	6	90	0.00	29.980 
04:10	60.5	60.5	60.5	87	56.6	2	6	90	0.00	29.982 
04:15	60.5	60.5	60.5	87	56.6	2	5	90	0.00	29.981 
04:20	60.5	60.5	60.5	87	56.6	1	4	90	0.00	29.985 
04:25	60.5	60.5	60.5	87	56.6	2	6	112	0.00	29.984 
04:30	60.4	60.4	60.4	87	56.5	2	5	90	0.00	29.982 
04:35	60.4	60.4	60.4	87	56.5	2	7	90	0.00	29.978 
04:40	60.4	60.4	60.4	87	56.5	2	4	90	0.00	29.985 
04:45	60.4	60.4	60.4	87	56.5	2	4	90	0.00	29.986 
04:50	60.4	60.4	60.4	87	56.5	2	4	68	0.00	29.980 
04:55	60.4	60.4	60.4	87	56.5	2	4	90	0.00	29.982 
05:00	60.4	60.4	60.4	87	56.5	2	5	90	0.00	29.981 
05:05	60.5	60.5	60.5	86	56.3	3	7	90	0.00	29.987 
05:10	60.5	60.5	60.5	85	56.0	2	7	90	0.00	29.990 
05:15	60.7	60.7	60.7	85	56.2	2	11	90	0.00	30.002 
05:20	60.7	60.7	60.7	86	56.5	2	7	90	0.00	30.005 
05:25	60.7	60.7	60.7	86	56.5	2	5	90	0.00	30.002 
05:30	60.5	60.5	60.5	85	56.0	2	6	112	0.00	30.001 
05:35	60.7	60.7	60.7	85	56.2	2	5	90	0.00	30.005 
05:40	60.7	60.7	60.7	86	56.5	1	3	90	0.00	30.032 
05:45	60.7	60.7	60.7	88	57.1	1	3	90	0.01	30.033 
05:50	60.4	60.4	60.4	90	57.4	3	9	90	0.00	30.012 
05:55	60.1	60.1	60.1	90	57.2	3	6	90	0.00	30.010 
06:00	59.9	59.9	59.9	90	57.0	3	7	90	0.00	30.016 
06:05	59.8	59.8	59.8	91	57.2	3	6	90	0.00	30.015 
06:10	59.6	59.6	59.6	91	57.0	4	9	90	0.00	30.018 
06:15	59.6	59.6	59.6	91	57.0	4	11	112	0.00	30.015 
06:20	59.5	59.5	59.5	92	57.2	2	5	90	0.00	30.019 
06:25	59.5	59.5	59.5	92	57.2	3	7	112	0.00	30.018 
06:30	59.5	59.5	59.5	92	57.2	2	5	112	0.00	30.020 
06:35	59.5	59.5	59.5	92	57.2	3	5	90	0.00	30.019 
06:40	59.3	59.3	59.3	92	57.0	4	8	90	0.00	30.021 
06:45	59.2	59.2	59.2	92	56.9	3	9	90	0.00	30.020 
06:50	59.2	59.2	59.2	92	56.9	3	7	90	0.00	30.023 
06:55	59.0	59.0	59.0	92	56.7	3	9	90	0.00	30.018 
07:00	59.0	59.0	59.0	92	56.7	3	7	90	0.02	30.014 
07:05	58.9	58.9	58.9	93	56.9	2	6	90	0.00	30.017 
07:10	58.9	58.9	58.9	93	56.9	2	6	90	0.00	30.028 
07:15	58.9	58.9	58.9	93	56.9	3	7	90	0.00	30.037 
07:20	59.0	59.0	59.0	93	57.0	1	3	90	0.00	30.045 
07:25	59.0	59.0	59.0	94	57.3	1	4	90	0.00	30.052 
07:30	59.2	59.2	59.2	94	57.5	2	4	90	0.00	30.043 
07:35	59.2	59.2	59.2	94	57.5	2	5	90	0.00	30.038 
07:40	59.2	59.2	59.2	94	57.5	3	9	112	0.00	30.046 
07:45	59.2	59.2	59.2	94	57.5	3	9	90	0.00	30.051 
07:50	59.3	59.3	59.3	94	57.6	2	5	90	0.00	30.047 
07:55	59.3	59.3	59.3	94	57.6	3	9	90	0.00	30.049 
08:00	59.5	59.5	59.5	94	57.8	2	5	90	0.00	30.058 
08:05	59.5	59.5	59.5	94	57.8	1	3	90	0.00	30.077 
08:10	59.5	59.5	59.5	94	57.8	1	4	90	0.01	30.066 
08:15	59.3	59.3	59.3	94	57.6	2	6	112	0.03	30.051 
08:20	59.2	59.2	59.2	94	57.5	3	7	90	0.01	30.043 
08:25	58.9	58.9	58.9	94	57.2	3	7	90	0.01	30.041 
08:30	58.9	58.9	58.9	95	57.5	2	4	90	0.01	30.035 
08:35	58.9	58.9	58.9	95	57.5	3	8	90	0.00	30.025 
08:40	58.9	58.9	58.9	95	57.5	3	7	90	0.00	30.032 
08:45	59.0	59.0	59.0	96	57.9	2	6	90	0.00	30.028 
08:50	59.2	59.2	59.2	96	58.1	2	5	90	0.00	30.030 
08:55	59.2	59.2	59.2	95	57.8	3	7	90	0.00	30.025 
09:00	59.3	59.3	59.3	96	58.2	3	9	90	0.00	30.024 
09:05	59.5	59.5	59.5	95	58.1	3	7	90	0.00	30.020 
09:10	59.5	59.5	59.5	95	58.1	3	9	90	0.00	30.016 
09:15	59.6	59.6	59.6	95	58.2	3	7	90	0.00	30.014 
09:20	59.6	59.6	59.6	94	57.9	4	10	90	0.00	30.013 
09:25	59.9	59.9	59.9	94	58.2	3	7	90	0.00	30.013 
09:30	60.1	60.1	60.1	94	58.4	3	9	90	0.00	30.010 
09:35	60.2	60.2	60.2	94	58.5	3	7	90	0.00	30.001 
09:40	60.4	60.4	60.4	93	58.4	2	10	112	0.00	29.996 
09:45	60.5	60.5	60.5	92	58.2	3	5	90	0.00	30.000 
09:50	60.7	60.7	60.7	92	58.4	3	7	90	0.00	29.994 
09:55	60.9	60.9	60.9	92	58.6	4	9	90	0.00	29.991 
10:00	61.0	61.0	61.0	91	58.4	3	10	112	0.00	29.990 
10:05	61.2	61.2	61.2	91	58.5	2	7	90	0.00	29.990 
10:10	61.3	61.3	61.3	91	58.6	2	5	135	0.00	29.992 
10:15	61.6	61.6	61.6	90	58.6	3	7	90	0.00	29.988 
10:20	62.0	62.0	62.0	89	58.7	2	5	90	0.00	29.988 
10:25	62.1	62.1	62.1	89	58.8	1	4	112	0.00	29.982 
10:30	62.4	62.4	62.4	88	58.8	1	5	112	0.00	29.977 
10:35	62.6	62.6	62.6	88	59.0	2	9	90	0.00	29.977 
10:40	63.1	63.1	63.1	87	59.2	2	9	112	0.00	29.976 
10:45	63.7	63.7	63.7	87	59.8	2	5	90	0.00	29.975 
10:50	64.5	64.5	64.5	85	59.9	2	6	90	0.00	29.971 
10:55	65.5	65.5	65.5	83	60.2	2	7	90	0.00	29.966 
11:00	66.4	66.4	66.4	81	60.4	2	5	112	0.00	29.967 
11:05	66.6	66.6	66.6	80	60.2	2	5	90	0.00	29.961 
11:10	66.8	66.8	66.8	78	59.7	2	5	112	0.00	29.961 
11:15	66.9	66.9	66.9	80	60.5	1	3	315	0.00	29.969 
11:20	67.3	67.3	67.3	80	60.9	1	4	68	0.00	29.967 
11:25	67.6	67.6	67.6	79	60.8	0	2	90	0.00	29.972 
11:30	67.9	67.9	67.9	78	60.8	1	3	90	0.00	29.971 
11:35	68.1	68.1	68.1	77	60.6	1	3	90	0.00	29.976 
11:40	68.1	68.1	68.1	76	60.2	1	2	112	0.00	29.985 
11:45	68.3	68.3	68.3	75	60.1	0	2	112	0.00	29.987 
11:50	68.3	68.3	68.3	74	59.7	0	2	112	0.00	29.987 
11:55	68.1	68.1	68.1	75	59.9	0	1	112	0.00	29.988 
12:00	67.9	67.9	67.9	77	60.4	0	1	112	0.00	29.993 
12:05	67.4	67.4	67.4	79	60.7	0	0	---	0.01	30.002 
12:10	66.9	66.9	66.9	81	60.9	0	0	---	0.01	30.000 
12:15	66.4	66.4	66.4	84	61.4	0	1	112	0.02	30.012 
12:20	66.0	66.0	66.0	87	62.0	0	1	112	0.02	30.025 
12:25	65.3	65.3	65.3	89	62.0	0	1	112	0.05	30.032 
12:30	65.0	65.0	65.0	90	62.0	0	1	112	0.06	30.008 
12:35	64.5	64.5	64.5	91	61.8	0	2	112	0.04	30.003 
12:40	64.2	64.2	64.2	92	61.8	0	0	---	0.01	30.005 
12:45	64.0	64.0	64.0	92	61.6	0	0	---	0.02	30.004 
12:50	63.9	63.9	63.9	93	61.8	0	0	---	0.01	30.005 
12:55	63.7	63.7	63.7	93	61.6	0	0	---	0.02	30.004 
13:00	63.7	63.7	63.7	94	61.9	0	0	---	0.03	30.001 
13:05	63.7	63.7	63.7	94	61.9	0	0	---	0.02	30.000 
13:10	63.7	63.7	63.7	94	61.9	0	1	112	0.02	29.994 
13:15	63.7	63.7	63.7	95	62.2	0	1	112	0.02	29.991 
13:20	63.7	63.7	63.7	95	62.2	0	1	112	0.01	29.990 
13:25	63.7	63.7	63.7	95	62.2	0	1	112	0.01	29.987 
13:30	63.7	63.7	63.7	95	62.2	0	2	112	0.01	29.983 
13:35	63.7	63.7	63.7	96	62.5	0	1	112	0.01	29.979 
13:40	63.7	63.7	63.7	96	62.5	0	2	112	0.01	29.974 
13:45	63.5	63.5	63.5	96	62.3	1	3	112	0.00	29.974 
13:50	63.7	63.7	63.7	96	62.5	0	2	112	0.01	29.977 
13:55	63.7	63.7	63.7	96	62.5	0	1	112	0.00	29.985 
14:00	63.7	63.7	63.7	96	62.5	0	2	112	0.01	29.984 
14:05	63.7	63.7	63.7	96	62.5	0	1	112	0.00	29.982 
14:10	63.9	63.9	63.9	96	62.7	0	2	112	0.01	29.982 
14:15	63.9	63.9	63.9	96	62.7	0	2	112	0.01	29.981 
14:20	64.0	64.0	64.0	96	62.8	1	3	112	0.01	29.981 
14:25	64.0	64.0	64.0	96	62.8	1	2	112	0.00	29.986 
14:30	64.0	64.0	64.0	96	62.8	0	1	112	0.00	29.987 
14:35	64.3	64.3	64.3	96	63.1	0	1	112	0.00	29.985 
14:40	64.5	64.5	64.5	96	63.3	0	2	112	0.00	29.983 
14:45	64.5	64.5	64.5	96	63.3	1	3	112	0.00	29.980 
14:50	64.5	64.5	64.5	96	63.3	0	2	112	0.01	29.979 
14:55	64.7	64.7	64.7	96	63.5	0	1	112	0.00	29.978 
15:00	64.7	64.7	64.7	96	63.5	0	2	112	0.00	29.976 
15:05	64.7	64.7	64.7	96	63.5	1	2	112	0.00	29.972 
15:10	64.8	64.8	64.8	95	63.3	1	3	112	0.00	29.972 
15:15	64.7	64.7	64.7	95	63.2	2	3	112	0.00	29.970 
15:20	64.7	64.7	64.7	95	63.2	1	3	112	0.00	29.971 
15:25	64.8	64.8	64.8	95	63.3	0	1	112	0.00	29.971 
15:30	64.8	64.8	64.8	95	63.3	0	1	112	0.00	29.972 
15:35	64.8	64.8	64.8	95	63.3	1	2	112	0.00	29.969 
15:40	65.0	65.0	65.0	95	63.5	0	2	112	0.00	29.969 
15:45	65.0	65.0	65.0	95	63.5	0	1	112	0.00	29.970 
15:50	64.8	64.8	64.8	95	63.3	1	3	90	0.01	29.968 
15:55	64.7	64.7	64.7	95	63.2	1	3	90	0.00	29.963 
16:00	64.8	64.8	64.8	95	63.3	1	4	90	0.00	29.962 
16:05	64.7	64.7	64.7	95	63.2	2	3	90	0.00	29.965 
16:10	64.8	64.8	64.8	95	63.3	1	2	90	0.00	29.968 
16:15	64.7	64.7	64.7	95	63.2	1	3	90	0.00	29.967 
16:20	64.7	64.7	64.7	95	63.2	0	1	112	0.00	29.971 
16:25	64.7	64.7	64.7	95	63.2	1	2	112	0.00	29.968 
16:30	64.5	64.5	64.5	95	63.0	1	4	112	0.00	29.968 
16:35	64.5	64.5	64.5	95	63.0	2	4	112	0.00	29.966 
16:40	64.7	64.7	64.7	95	63.2	1	3	68	0.00	29.965 
16:45	64.8	64.8	64.8	95	63.3	1	3	90	0.00	29.960 
16:50	65.0	65.0	65.0	95	63.5	1	4	90	0.00	29.958 
16:55	65.2	65.2	65.2	95	63.7	1	4	90	0.00	29.957 
17:00	65.2	65.2	65.2	95	63.7	1	3	90	0.00	29.958 
17:05	65.2	65.2	65.2	95	63.7	1	4	112	0.00	29.961 
17:10	65.0	65.0	65.0	94	63.2	1	4	90	0.00	29.963 
17:15	64.8	64.8	64.8	94	63.0	2	4	90	0.00	29.966 
17:20	65.0	65.0	65.0	94	63.2	1	3	90	0.00	29.965 
17:25	65.2	65.2	65.2	94	63.4	1	5	90	0.00	29.959 
17:30	65.2	65.2	65.2	94	63.4	1	4	90	0.00	29.958 
17:35	65.2	65.2	65.2	94	63.4	1	3	90	0.00	29.960 
17:40	65.0	65.0	65.0	94	63.2	2	5	112	0.00	29.959 
17:45	65.0	65.0	65.0	94	63.2	1	4	90	0.00	29.969 
17:50	65.0	65.0	65.0	94	63.2	1	3	90	0.00	29.967 
17:55	65.0	65.0	65.0	94	63.2	0	3	90	0.00	29.968 
18:00	64.8	64.8	64.8	94	63.0	1	2	68	0.00	29.973 
18:05	64.8	64.8	64.8	94	63.0	0	1	68	0.00	29.973 
18:10	64.8	64.8	64.8	94	63.0	0	2	68	0.00	29.975 
18:15	64.7	64.7	64.7	94	62.9	1	2	68	0.00	29.976 
18:20	64.7	64.7	64.7	94	62.9	0	2	68	0.00	29.977 
18:25	64.7	64.7	64.7	94	62.9	1	3	68	0.00	29.976 
18:30	64.5	64.5	64.5	94	62.7	1	3	112	0.00	29.982 
18:35	64.3	64.3	64.3	94	62.5	0	3	112	0.00	29.987 
18:40	64.5	64.5	64.5	95	63.0	1	4	112	0.00	29.982 
18:45	64.3	64.3	64.3	94	62.5	2	4	112	0.00	29.983 
18:50	64.3	64.3	64.3	95	62.8	0	2	112	0.00	29.984 
18:55	64.3	64.3	64.3	95	62.8	1	3	112	0.00	29.984 
19:00	64.3	64.3	64.3	95	62.8	1	3	112	0.00	29.986 
19:05	64.3	64.3	64.3	95	62.8	0	3	112	0.00	29.988 
19:10	64.3	64.3	64.3	95	62.8	0	2	112	0.00	29.986 
19:15	64.2	64.2	64.2	95	62.7	1	4	112	0.00	29.985 
19:20	64.0	64.0	64.0	95	62.5	2	6	112	0.00	29.988 
19:25	63.9	63.9	63.9	95	62.4	1	3	112	0.01	29.989 
19:30	63.9	63.9	63.9	95	62.4	1	3	112	0.00	29.987 
19:35	63.7	63.7	63.7	95	62.2	1	3	112	0.00	29.986 
19:40	63.5	63.5	63.5	95	62.0	1	4	112	0.00	29.985 
19:45	63.5	63.5	63.5	96	62.3	1	4	112	0.00	29.987 
19:50	63.4	63.4	63.4	96	62.2	2	5	112	0.00	29.988 
19:55	63.4	63.4	63.4	96	62.2	1	2	112	0.00	29.989 
20:00	63.2	63.2	63.2	96	62.0	2	4	112	0.00	29.984 
20:05	63.2	63.2	63.2	96	62.0	2	5	68	0.00	29.984 
20:10	63.1	63.1	63.1	96	61.9	2	4	90	0.01	29.989 
20:15	63.1	63.1	63.1	96	61.9	1	3	112	0.00	29.989 
20:20	63.1	63.1	63.1	96	61.9	2	5	112	0.00	29.981 
20:25	63.1	63.1	63.1	96	61.9	1	5	90	0.00	29.983 
20:30	63.1	63.1	63.1	96	61.9	1	3	68	0.00	29.989 
20:35	63.1	63.1	63.1	96	61.9	1	3	90	0.00	29.990 
20:40	62.9	62.9	62.9	96	61.7	1	4	90	0.00	29.991 
20:45	62.9	62.9	62.9	96	61.7	1	3	90	0.00	29.991 
20:50	62.9	62.9	62.9	96	61.7	1	4	90	0.01	29.986 
20:55	62.9	62.9	62.9	96	61.7	2	4	112	0.00	29.983 
21:00	62.9	62.9	62.9	96	61.7	1	4	90	0.00	29.985 
21:05	62.9	62.9	62.9	96	61.7	1	3	90	0.00	29.987 
21:10	62.9	62.9	62.9	96	61.7	1	4	68	0.00	29.991 
21:15	62.9	62.9	62.9	97	62.0	1	3	68	0.00	29.993 
21:20	63.1	63.1	63.1	97	62.2	1	3	68	0.00	29.989 
21:25	62.9	62.9	62.9	96	61.7	1	3	90	0.00	29.988 
21:30	62.9	62.9	62.9	96	61.7	2	3	90	0.00	29.978 
21:35	62.9	62.9	62.9	96	61.7	2	5	90	0.00	29.975 
21:40	62.9	62.9	62.9	96	61.7	2	5	90	0.00	29.978 
21:45	62.9	62.9	62.9	97	62.0	2	4	90	0.00	29.975 
21:50	62.7	62.7	62.7	96	61.5	2	6	90	0.00	29.976 
21:55	62.7	62.7	62.7	96	61.5	2	5	90	0.00	29.975 
22:00	62.7	62.7	62.7	97	61.8	1	2	90	0.00	29.980 
22:05	62.7	62.7	62.7	97	61.8	1	3	90	0.00	29.980 
22:10	62.7	62.7	62.7	97	61.8	1	4	112	0.00	29.983 
22:15	62.7	62.7	62.7	97	61.8	1	3	90	0.00	29.980 
22:20	62.7	62.7	62.7	97	61.8	1	3	68	0.00	29.979 
22:25	62.7	62.7	62.7	97	61.8	2	4	90	0.00	29.972 
22:30	62.7	62.7	62.7	97	61.8	1	3	90	0.00	29.973 
22:35	62.7	62.7	62.7	97	61.8	1	5	90	0.00	29.971 
22:40	62.7	62.7	62.7	97	61.8	1	4	90	0.00	29.973 
22:45	62.9	62.9	62.9	97	62.0	1	4	90	0.00	29.972 
22:50	62.9	62.9	62.9	97	62.0	1	5	90	0.00	29.981 
22:55	62.9	62.9	62.9	97	62.0	0	2	90	0.00	29.985 
23:00	62.9	62.9	62.9	97	62.0	0	2	90	0.00	29.987 
23:05	62.9	62.9	62.9	97	62.0	0	3	90	0.00	29.990 
23:10	62.9	62.9	62.9	97	62.0	0	2	90	0.00	29.997 
23:15	63.1	63.1	63.1	97	62.2	1	3	90	0.00	29.994 
23:20	63.1	63.1	63.1	97	62.2	1	3	90	0.00	29.988 
23:25	63.1	63.1	63.1	97	62.2	1	4	90	0.02	29.984 
23:30	63.1	63.1	63.1	97	62.2	1	3	68	0.01	29.984 
23:35	63.1	63.1	63.1	97	62.2	0	1	68	0.00	29.991 
23:40	63.1	63.1	63.1	97	62.2	0	2	68	0.00	29.999 
23:45	63.1	63.1	63.1	97	62.2	0	1	68	0.00	29.997 
23:50	63.1	63.1	63.1	97	62.2	1	3	68	0.00	29.977 
23:55	63.1	63.1	63.1	97	62.2	3	5	90	0.00	29.969 

CoCoRaHS
IN-AL-39
A2 Web Hosting
Creative Commons License
GoDaddy
Look for:

loaded 2017-10-17 09:14:29 • last modified 2010-11-18 10:43:29
Privacy PolicyDisclaimer
• wx.awcolley.com is powered by PmWiki v.2002016 •
• all content (unless otherwise noted) © 2017 A W Colley